sensor_id;sensor_type;location;lat;lon;timestamp;pressure;altitude;pressure_sealevel;temperature;humidity
84734;BME280;74957;48.082;17.260;2024-03-02T00:00:56;995.042;;;6.729;99.994
84734;BME280;74957;48.082;17.260;2024-03-02T00:05:56;995.065;;;6.729;99.994
84734;BME280;74957;48.082;17.260;2024-03-02T00:11:01;995.076;;;6.658;99.994
84734;BME280;74957;48.082;17.260;2024-03-02T00:16:02;995.261;;;6.628;99.994
84734;BME280;74957;48.082;17.260;2024-03-02T00:20:57;995.116;;;6.588;99.994
84734;BME280;74957;48.082;17.260;2024-03-02T00:25:58;995.244;;;6.547;99.994
84734;BME280;74957;48.082;17.260;2024-03-02T00:31:02;995.043;;;6.477;99.994
84734;BME280;74957;48.082;17.260;2024-03-02T00:36:04;995.133;;;6.477;99.994
84734;BME280;74957;48.082;17.260;2024-03-02T00:41:04;995.229;;;6.436;99.994
84734;BME280;74957;48.082;17.260;2024-03-02T00:46:17;995.042;;;6.386;99.994
84734;BME280;74957;48.082;17.260;2024-03-02T00:51:03;995.095;;;6.436;99.994
84734;BME280;74957;48.082;17.260;2024-03-02T00:56:08;995.124;;;6.477;99.994
84734;BME280;74957;48.082;17.260;2024-03-02T01:01:07;995.087;;;6.588;99.994
84734;BME280;74957;48.082;17.260;2024-03-02T01:06:04;995.12;;;6.648;99.994
84734;BME280;74957;48.082;17.260;2024-03-02T01:11:03;995.231;;;6.648;99.994
84734;BME280;74957;48.082;17.260;2024-03-02T01:16:02;995.006;;;6.648;99.994
84734;BME280;74957;48.082;17.260;2024-03-02T01:21:02;995.087;;;6.628;99.994
84734;BME280;74957;48.082;17.260;2024-03-02T01:26:01;995.2;;;6.688;99.994
84734;BME280;74957;48.082;17.260;2024-03-02T01:31:03;995.146;;;6.718;99.994
84734;BME280;74957;48.082;17.260;2024-03-02T01:36:04;995.166;;;6.809;99.994
84734;BME280;74957;48.082;17.260;2024-03-02T01:41:04;995.15;;;6.809;99.994
84734;BME280;74957;48.082;17.260;2024-03-02T01:46:02;995.164;;;6.769;99.994
84734;BME280;74957;48.082;17.260;2024-03-02T01:50:59;994.964;;;6.769;99.994
84734;BME280;74957;48.082;17.260;2024-03-02T01:56:04;995.198;;;6.809;99.994
84734;BME280;74957;48.082;17.260;2024-03-02T02:01:15;995.019;;;6.769;99.994
84734;BME280;74957;48.082;17.260;2024-03-02T02:05:59;994.842;;;6.809;99.994
84734;BME280;74957;48.082;17.260;2024-03-02T02:11:02;994.668;;;6.799;99.994
84734;BME280;74957;48.082;17.260;2024-03-02T02:16:09;994.834;;;6.849;99.994
84734;BME280;74957;48.082;17.260;2024-03-02T02:20:59;994.776;;;6.9;99.994
84734;BME280;74957;48.082;17.260;2024-03-02T02:25:54;994.887;;;6.97;99.994
84734;BME280;74957;48.082;17.260;2024-03-02T02:30:58;994.775;;;6.99;99.994
84734;BME280;74957;48.082;17.260;2024-03-02T02:35:54;994.609;;;7.021;99.994
84734;BME280;74957;48.082;17.260;2024-03-02T02:40:57;994.767;;;7.051;99.994
84734;BME280;74957;48.082;17.260;2024-03-02T02:45:59;994.749;;;7.061;99.994
84734;BME280;74957;48.082;17.260;2024-03-02T02:50:56;994.791;;;7.172;99.994
84734;BME280;74957;48.082;17.260;2024-03-02T02:55:58;994.821;;;7.101;99.994
84734;BME280;74957;48.082;17.260;2024-03-02T03:01:00;994.937;;;7.182;99.994
84734;BME280;74957;48.082;17.260;2024-03-02T03:05:58;994.761;;;7.151;99.994
84734;BME280;74957;48.082;17.260;2024-03-02T03:10:57;994.829;;;7.182;99.994
84734;BME280;74957;48.082;17.260;2024-03-02T03:15:56;994.798;;;7.212;99.994
84734;BME280;74957;48.082;17.260;2024-03-02T03:20:56;994.782;;;7.212;99.994
84734;BME280;74957;48.082;17.260;2024-03-02T03:25:54;994.824;;;7.282;99.994
84734;BME280;74957;48.082;17.260;2024-03-02T03:30:53;994.883;;;7.272;99.994
84734;BME280;74957;48.082;17.260;2024-03-02T03:35:54;994.776;;;7.212;99.994
84734;BME280;74957;48.082;17.260;2024-03-02T03:40:54;994.725;;;7.202;99.994
84734;BME280;74957;48.082;17.260;2024-03-02T03:46:03;994.862;;;7.061;99.994
84734;BME280;74957;48.082;17.260;2024-03-02T03:51:05;994.736;;;6.9;99.994
84734;BME280;74957;48.082;17.260;2024-03-02T03:56:04;994.938;;;6.829;99.994
84734;BME280;74957;48.082;17.260;2024-03-02T04:01:09;994.834;;;6.718;99.994
84734;BME280;74957;48.082;17.260;2024-03-02T04:06:01;994.731;;;6.668;99.994
84734;BME280;74957;48.082;17.260;2024-03-02T04:11:05;994.786;;;6.648;99.994
84734;BME280;74957;48.082;17.260;2024-03-02T04:16:03;994.854;;;6.567;99.994
84734;BME280;74957;48.082;17.260;2024-03-02T04:21:00;994.944;;;6.436;99.994
84734;BME280;74957;48.082;17.260;2024-03-02T04:26:04;995.101;;;6.326;99.994
84734;BME280;74957;48.082;17.260;2024-03-02T04:31:07;995.162;;;6.215;99.994
84734;BME280;74957;48.082;17.260;2024-03-02T04:36:02;994.984;;;6.235;99.994
84734;BME280;74957;48.082;17.260;2024-03-02T04:41:06;994.834;;;6.255;99.994
84734;BME280;74957;48.082;17.260;2024-03-02T04:46:05;995.002;;;6.285;99.994
84734;BME280;74957;48.082;17.260;2024-03-02T04:51:11;994.887;;;6.336;99.994
84734;BME280;74957;48.082;17.260;2024-03-02T04:56:04;994.909;;;6.336;99.994
84734;BME280;74957;48.082;17.260;2024-03-02T05:01:00;994.986;;;6.406;99.994
84734;BME280;74957;48.082;17.260;2024-03-02T05:06:02;995.022;;;6.537;99.994
84734;BME280;74957;48.082;17.260;2024-03-02T05:11:01;995.078;;;6.628;99.994
84734;BME280;74957;48.082;17.260;2024-03-02T05:16:03;994.838;;;6.658;99.994
84734;BME280;74957;48.082;17.260;2024-03-02T05:21:03;995.232;;;6.658;99.994
84734;BME280;74957;48.082;17.260;2024-03-02T05:26:00;995.126;;;6.668;99.994
84734;BME280;74957;48.082;17.260;2024-03-02T05:31:05;995.185;;;6.658;99.994
84734;BME280;74957;48.082;17.260;2024-03-02T05:35:57;995.324;;;6.588;99.994
84734;BME280;74957;48.082;17.260;2024-03-02T05:40:59;995.359;;;6.567;99.994
84734;BME280;74957;48.082;17.260;2024-03-02T05:46:01;995.361;;;6.507;99.994
84734;BME280;74957;48.082;17.260;2024-03-02T05:50:55;995.478;;;6.567;99.994
84734;BME280;74957;48.082;17.260;2024-03-02T05:55:58;995.417;;;6.618;99.994
84734;BME280;74957;48.082;17.260;2024-03-02T06:01:03;995.55;;;6.648;99.994
84734;BME280;74957;48.082;17.260;2024-03-02T06:06:01;995.444;;;6.567;99.994
84734;BME280;74957;48.082;17.260;2024-03-02T06:11:02;995.353;;;6.547;99.994
84734;BME280;74957;48.082;17.260;2024-03-02T06:16:05;995.57;;;6.567;99.994
84734;BME280;74957;48.082;17.260;2024-03-02T06:21:02;995.525;;;6.567;99.994
84734;BME280;74957;48.082;17.260;2024-03-02T06:25:58;995.672;;;6.567;99.994
84734;BME280;74957;48.082;17.260;2024-03-02T06:31:06;995.726;;;6.567;99.994
84734;BME280;74957;48.082;17.260;2024-03-02T06:36:04;995.648;;;6.577;99.994
84734;BME280;74957;48.082;17.260;2024-03-02T06:40:58;995.572;;;6.577;99.994
84734;BME280;74957;48.082;17.260;2024-03-02T06:46:04;995.744;;;6.618;99.994
84734;BME280;74957;48.082;17.260;2024-03-02T06:51:00;995.713;;;6.668;99.994
84734;BME280;74957;48.082;17.260;2024-03-02T06:56:04;995.652;;;6.749;99.994
84734;BME280;74957;48.082;17.260;2024-03-02T07:01:10;995.816;;;6.729;99.994
84734;BME280;74957;48.082;17.260;2024-03-02T07:06:13;995.931;;;6.769;99.994
84734;BME280;74957;48.082;17.260;2024-03-02T07:11:07;995.909;;;6.809;99.994
84734;BME280;74957;48.082;17.260;2024-03-02T07:16:07;996.062;;;6.769;99.994
84734;BME280;74957;48.082;17.260;2024-03-02T07:21:09;995.873;;;6.759;99.994
84734;BME280;74957;48.082;17.260;2024-03-02T07:26:08;996.122;;;6.88;99.994
84734;BME280;74957;48.082;17.260;2024-03-02T07:31:20;995.961;;;6.95;99.994
84734;BME280;74957;48.082;17.260;2024-03-02T07:36:07;996.091;;;6.99;99.994
84734;BME280;74957;48.082;17.260;2024-03-02T07:41:09;996.071;;;7.061;99.994
84734;BME280;74957;48.082;17.260;2024-03-02T07:46:09;996.194;;;7.333;99.994
84734;BME280;74957;48.082;17.260;2024-03-02T07:51:07;996.151;;;7.363;99.994
84734;BME280;74957;48.082;17.260;2024-03-02T07:56:06;996.209;;;7.393;99.994
84734;BME280;74957;48.082;17.260;2024-03-02T08:01:13;996.263;;;7.635;99.994
84734;BME280;74957;48.082;17.260;2024-03-02T08:06:05;996.337;;;7.816;99.994
84734;BME280;74957;48.082;17.260;2024-03-02T08:11:07;996.274;;;7.967;99.994
84734;BME280;74957;48.082;17.260;2024-03-02T08:16:08;996.232;;;8.128;99.994
84734;BME280;74957;48.082;17.260;2024-03-02T08:21:08;996.144;;;7.977;99.994
84734;BME280;74957;48.082;17.260;2024-03-02T08:26:06;996.101;;;8.068;99.994
84734;BME280;74957;48.082;17.260;2024-03-02T08:31:05;996.191;;;8.249;99.994
84734;BME280;74957;48.082;17.260;2024-03-02T08:36:07;996.206;;;8.461;99.994
84734;BME280;74957;48.082;17.260;2024-03-02T08:41:07;996.22;;;8.622;99.994
84734;BME280;74957;48.082;17.260;2024-03-02T08:46:05;996.286;;;8.622;99.994
84734;BME280;74957;48.082;17.260;2024-03-02T08:51:06;996.337;;;8.733;99.994
84734;BME280;74957;48.082;17.260;2024-03-02T08:56:06;996.292;;;8.924;99.994
84734;BME280;74957;48.082;17.260;2024-03-02T09:01:18;996.2;;;9.156;99.994
84734;BME280;74957;48.082;17.260;2024-03-02T09:06:11;996.289;;;9.357;99.384
84734;BME280;74957;48.082;17.260;2024-03-02T09:11:10;996.295;;;9.679;98.37
84734;BME280;74957;48.082;17.260;2024-03-02T09:16:06;996.153;;;9.901;97.198
84734;BME280;74957;48.082;17.260;2024-03-02T09:21:11;996.217;;;10.072;96.844
84734;BME280;74957;48.082;17.260;2024-03-02T09:26:09;996.313;;;10.263;95.984
84734;BME280;74957;48.082;17.260;2024-03-02T09:31:06;996.264;;;10.414;94.141
84734;BME280;74957;48.082;17.260;2024-03-02T09:36:04;996.348;;;10.737;93.237
84734;BME280;74957;48.082;17.260;2024-03-02T09:41:05;996.353;;;10.787;90.784
84734;BME280;74957;48.082;17.260;2024-03-02T09:46:06;996.415;;;10.747;91.394
84734;BME280;74957;48.082;17.260;2024-03-02T09:51:04;996.262;;;10.737;92.621
84734;BME280;74957;48.082;17.260;2024-03-02T09:56:01;996.303;;;11.029;91.962
84734;BME280;74957;48.082;17.260;2024-03-02T10:01:05;996.349;;;10.968;92.065
84734;BME280;74957;48.082;17.260;2024-03-02T10:06:21;996.188;;;10.878;91.907
84734;BME280;74957;48.082;17.260;2024-03-02T10:11:04;996.106;;;10.868;91.803
84734;BME280;74957;48.082;17.260;2024-03-02T10:16:14;996.176;;;10.868;91.498
84734;BME280;74957;48.082;17.260;2024-03-02T10:21:15;996.2;;;10.988;91.248
84734;BME280;74957;48.082;17.260;2024-03-02T10:26:19;996.078;;;10.958;90.741
84734;BME280;74957;48.082;17.260;2024-03-02T10:31:14;995.977;;;10.777;90.784
84734;BME280;74957;48.082;17.260;2024-03-02T10:36:11;996.263;;;10.837;91.193
84734;BME280;74957;48.082;17.260;2024-03-02T10:41:11;996.295;;;10.878;91.089
84734;BME280;74957;48.082;17.260;2024-03-02T10:46:20;996.114;;;10.626;92.358
84734;BME280;74957;48.082;17.260;2024-03-02T10:51:06;996.198;;;10.847;92.419
84734;BME280;74957;48.082;17.260;2024-03-02T10:56:11;996.083;;;10.807;92.517
84734;BME280;74957;48.082;17.260;2024-03-02T11:01:14;995.977;;;10.445;93.628
84734;BME280;74957;48.082;17.260;2024-03-02T11:06:07;996.079;;;10.475;94.812
84734;BME280;74957;48.082;17.260;2024-03-02T11:11:11;996.186;;;10.354;94.751
84734;BME280;74957;48.082;17.260;2024-03-02T11:16:09;996.109;;;10.414;95.062
84734;BME280;74957;48.082;17.260;2024-03-02T11:21:05;996.08;;;10.445;94.958
84734;BME280;74957;48.082;17.260;2024-03-02T11:26:19;996.067;;;10.475;94.916
84734;BME280;74957;48.082;17.260;2024-03-02T11:31:07;996.192;;;10.324;95.264
84734;BME280;74957;48.082;17.260;2024-03-02T11:35:59;996.076;;;10.263;95.88
84734;BME280;74957;48.082;17.260;2024-03-02T12:11:09;996.159;;;10.102;97.766
84734;BME280;74957;48.082;17.260;2024-03-02T12:16:05;996.162;;;10.143;98.071
84734;BME280;74957;48.082;17.260;2024-03-02T12:21:09;996.3;;;10.052;98.279
84734;BME280;74957;48.082;17.260;2024-03-02T12:26:06;996.241;;;10.112;98.383
84734;BME280;74957;48.082;17.260;2024-03-02T12:31:13;996.17;;;10.012;98.529
84734;BME280;74957;48.082;17.260;2024-03-02T12:36:09;996.214;;;10.102;98.486
84734;BME280;74957;48.082;17.260;2024-03-02T12:41:08;996.025;;;10.002;99.042
84734;BME280;74957;48.082;17.260;2024-03-02T12:46:06;996.089;;;10.022;98.737
84734;BME280;74957;48.082;17.260;2024-03-02T12:51:09;996.147;;;9.961;98.425
84734;BME280;74957;48.082;17.260;2024-03-02T12:56:08;996.17;;;9.941;98.529
84734;BME280;74957;48.082;17.260;2024-03-02T13:01:09;996.171;;;9.981;98.834
84734;BME280;74957;48.082;17.260;2024-03-02T13:06:13;996.114;;;9.941;98.328
84734;BME280;74957;48.082;17.260;2024-03-02T13:11:06;996.033;;;10.002;98.737
84734;BME280;74957;48.082;17.260;2024-03-02T13:16:00;995.951;;;9.941;99.042
84734;BME280;74957;48.082;17.260;2024-03-02T13:21:02;995.801;;;9.941;99.249
84734;BME280;74957;48.082;17.260;2024-03-02T13:26:00;995.835;;;10.072;99.2
84734;BME280;74957;48.082;17.260;2024-03-02T13:31:07;995.952;;;10.082;99.304
84734;BME280;74957;48.082;17.260;2024-03-02T13:36:03;995.876;;;10.002;98.737
84734;BME280;74957;48.082;17.260;2024-03-02T13:41:04;995.867;;;9.921;99.347
84734;BME280;74957;48.082;17.260;2024-03-02T13:46:09;995.892;;;9.981;99.451
84734;BME280;74957;48.082;17.260;2024-03-02T13:51:03;995.958;;;9.891;99.347
84734;BME280;74957;48.082;17.260;2024-03-02T13:56:03;995.877;;;9.861;99.994
84734;BME280;74957;48.082;17.260;2024-03-02T14:01:00;995.945;;;9.82;99.994
84734;BME280;74957;48.082;17.260;2024-03-02T14:06:05;996.048;;;9.85;99.994
84734;BME280;74957;48.082;17.260;2024-03-02T14:16:07;996.146;;;9.83;99.994
84734;BME280;74957;48.082;17.260;2024-03-02T14:21:07;995.883;;;9.78;99.994
84734;BME280;74957;48.082;17.260;2024-03-02T14:26:06;995.927;;;9.77;99.994
84734;BME280;74957;48.082;17.260;2024-03-02T14:31:07;996.075;;;9.72;99.994
84734;BME280;74957;48.082;17.260;2024-03-02T14:41:09;995.763;;;9.619;99.994
84734;BME280;74957;48.082;17.260;2024-03-02T14:46:08;995.975;;;9.589;99.994
84734;BME280;74957;48.082;17.260;2024-03-02T14:51:07;995.916;;;9.568;99.994
84734;BME280;74957;48.082;17.260;2024-03-02T14:56:09;995.89;;;9.528;99.994
84734;BME280;74957;48.082;17.260;2024-03-02T15:01:24;995.864;;;9.508;99.994
84734;BME280;74957;48.082;17.260;2024-03-02T15:06:08;995.902;;;9.528;99.994
84734;BME280;74957;48.082;17.260;2024-03-02T15:10:59;995.992;;;9.558;99.994
84734;BME280;74957;48.082;17.260;2024-03-02T15:20:59;995.895;;;9.558;99.994
84734;BME280;74957;48.082;17.260;2024-03-02T15:25:59;995.801;;;9.508;99.994
84734;BME280;74957;48.082;17.260;2024-03-02T15:31:07;995.746;;;9.488;99.994
84734;BME280;74957;48.082;17.260;2024-03-02T15:36:06;995.676;;;9.468;99.994
84734;BME280;74957;48.082;17.260;2024-03-02T15:41:08;995.765;;;9.488;99.994
84734;BME280;74957;48.082;17.260;2024-03-02T15:46:06;995.593;;;9.468;99.994
84734;BME280;74957;48.082;17.260;2024-03-02T15:51:07;995.646;;;9.377;99.994
84734;BME280;74957;48.082;17.260;2024-03-02T15:56:09;995.896;;;9.387;99.994
84734;BME280;74957;48.082;17.260;2024-03-02T16:01:11;995.711;;;9.427;99.994
84734;BME280;74957;48.082;17.260;2024-03-02T16:06:08;995.902;;;9.438;99.994
84734;BME280;74957;48.082;17.260;2024-03-02T16:11:04;995.701;;;9.377;99.994
84734;BME280;74957;48.082;17.260;2024-03-02T16:21:05;995.912;;;9.337;99.994
84734;BME280;74957;48.082;17.260;2024-03-02T16:26:06;995.788;;;9.357;99.994
84734;BME280;74957;48.082;17.260;2024-03-02T16:31:05;995.629;;;9.377;99.994
84734;BME280;74957;48.082;17.260;2024-03-02T16:36:06;995.654;;;9.357;99.994
84734;BME280;74957;48.082;17.260;2024-03-02T16:41:04;995.77;;;9.317;99.994
84734;BME280;74957;48.082;17.260;2024-03-02T16:46:18;995.74;;;9.317;99.994
84734;BME280;74957;48.082;17.260;2024-03-02T16:51:04;995.791;;;9.256;99.994
84734;BME280;74957;48.082;17.260;2024-03-02T16:56:04;995.786;;;9.236;99.994
84734;BME280;74957;48.082;17.260;2024-03-02T17:06:10;995.907;;;9.256;99.994
84734;BME280;74957;48.082;17.260;2024-03-02T17:11:09;995.847;;;9.206;99.994
84734;BME280;74957;48.082;17.260;2024-03-02T17:15:56;996.011;;;9.246;99.994
84734;BME280;74957;48.082;17.260;2024-03-02T17:20:59;995.968;;;9.206;99.994
84734;BME280;74957;48.082;17.260;2024-03-02T17:25:55;996.179;;;9.176;99.994
84734;BME280;74957;48.082;17.260;2024-03-02T17:31:00;996.083;;;9.196;99.994
84734;BME280;74957;48.082;17.260;2024-03-02T17:35:54;996.052;;;9.196;99.994
84734;BME280;74957;48.082;17.260;2024-03-02T17:40:57;995.959;;;9.176;99.994
84734;BME280;74957;48.082;17.260;2024-03-02T17:46:05;995.952;;;9.105;99.994
84734;BME280;74957;48.082;17.260;2024-03-02T17:50:56;996.005;;;9.065;99.994
84734;BME280;74957;48.082;17.260;2024-03-02T17:55:55;996.01;;;9.065;99.994
84734;BME280;74957;48.082;17.260;2024-03-02T18:00:57;995.927;;;8.994;99.994
84734;BME280;74957;48.082;17.260;2024-03-02T18:05:55;995.991;;;8.904;99.994
84734;BME280;74957;48.082;17.260;2024-03-02T18:10:56;995.892;;;8.833;99.994
84734;BME280;74957;48.082;17.260;2024-03-02T18:16:01;995.935;;;8.773;99.994
84734;BME280;74957;48.082;17.260;2024-03-02T18:21:04;995.887;;;8.672;99.994
84734;BME280;74957;48.082;17.260;2024-03-02T18:26:03;996.008;;;8.561;99.994
84734;BME280;74957;48.082;17.260;2024-03-02T18:31:21;995.996;;;8.551;99.994
84734;BME280;74957;48.082;17.260;2024-03-02T18:36:02;995.989;;;8.441;99.994
84734;BME280;74957;48.082;17.260;2024-03-02T18:41:00;996.014;;;8.36;99.994
84734;BME280;74957;48.082;17.260;2024-03-02T18:45:57;996.075;;;8.33;99.994
84734;BME280;74957;48.082;17.260;2024-03-02T18:51:08;995.938;;;8.229;99.994
84734;BME280;74957;48.082;17.260;2024-03-02T18:56:04;995.954;;;8.148;99.994
84734;BME280;74957;48.082;17.260;2024-03-02T19:01:07;996.123;;;8.068;99.994
84734;BME280;74957;48.082;17.260;2024-03-02T19:06:03;996.018;;;7.977;99.994
84734;BME280;74957;48.082;17.260;2024-03-02T19:11:04;995.952;;;8.008;99.994
84734;BME280;74957;48.082;17.260;2024-03-02T19:16:03;996.063;;;7.887;99.994
84734;BME280;74957;48.082;17.260;2024-03-02T19:21:02;996.205;;;7.846;99.994
84734;BME280;74957;48.082;17.260;2024-03-02T19:26:01;996.127;;;7.756;99.994
84734;BME280;74957;48.082;17.260;2024-03-02T19:31:12;996.107;;;7.715;99.994
84734;BME280;74957;48.082;17.260;2024-03-02T19:36:08;996.24;;;7.564;99.994
84734;BME280;74957;48.082;17.260;2024-03-02T19:41:02;996.19;;;7.595;99.994
84734;BME280;74957;48.082;17.260;2024-03-02T19:46:01;996.096;;;7.605;99.994
84734;BME280;74957;48.082;17.260;2024-03-02T19:51:04;996.168;;;7.605;99.994
84734;BME280;74957;48.082;17.260;2024-03-02T19:56:06;996.009;;;7.665;99.994
84734;BME280;74957;48.082;17.260;2024-03-02T20:01:16;996.083;;;7.675;99.994
84734;BME280;74957;48.082;17.260;2024-03-02T20:06:04;996.101;;;7.695;99.994
84734;BME280;74957;48.082;17.260;2024-03-02T20:11:04;996.207;;;7.715;99.994
84734;BME280;74957;48.082;17.260;2024-03-02T20:16:02;996.129;;;7.705;99.994
84734;BME280;74957;48.082;17.260;2024-03-02T20:20:56;995.947;;;7.715;99.994
84734;BME280;74957;48.082;17.260;2024-03-02T20:25:54;996.034;;;7.705;99.994
84734;BME280;74957;48.082;17.260;2024-03-02T20:30:57;996.149;;;7.695;99.994
84734;BME280;74957;48.082;17.260;2024-03-02T20:36:00;996.257;;;7.635;99.994
84734;BME280;74957;48.082;17.260;2024-03-02T20:40:58;996.211;;;7.615;99.994
84734;BME280;74957;48.082;17.260;2024-03-02T20:46:11;996.228;;;7.524;99.994
84734;BME280;74957;48.082;17.260;2024-03-02T20:51:03;996.229;;;7.464;99.994
84734;BME280;74957;48.082;17.260;2024-03-02T20:55:54;996.173;;;7.454;99.994
84734;BME280;74957;48.082;17.260;2024-03-02T21:01:00;996.106;;;7.484;99.994
84734;BME280;74957;48.082;17.260;2024-03-02T21:06:03;996.059;;;7.544;99.994
84734;BME280;74957;48.082;17.260;2024-03-02T21:10:54;996.153;;;7.484;99.994
84734;BME280;74957;48.082;17.260;2024-03-02T21:16:05;995.982;;;7.524;99.994
84734;BME280;74957;48.082;17.260;2024-03-02T21:21:04;996.16;;;7.524;99.994
84734;BME280;74957;48.082;17.260;2024-03-02T21:26:03;996.079;;;7.524;99.994
84734;BME280;74957;48.082;17.260;2024-03-02T21:31:03;996.063;;;7.494;99.994
84734;BME280;74957;48.082;17.260;2024-03-02T21:36:03;995.849;;;7.464;99.994
84734;BME280;74957;48.082;17.260;2024-03-02T21:41:00;995.932;;;7.454;99.994
84734;BME280;74957;48.082;17.260;2024-03-02T21:46:07;995.919;;;7.454;99.994
84734;BME280;74957;48.082;17.260;2024-03-02T21:51:02;995.974;;;7.464;99.994
84734;BME280;74957;48.082;17.260;2024-03-02T21:56:06;995.833;;;7.484;99.994
84734;BME280;74957;48.082;17.260;2024-03-02T22:00:53;995.88;;;7.454;99.994
84734;BME280;74957;48.082;17.260;2024-03-02T22:06:05;995.831;;;7.494;99.994
84734;BME280;74957;48.082;17.260;2024-03-02T22:10:59;995.822;;;7.494;99.994
84734;BME280;74957;48.082;17.260;2024-03-02T22:16:12;995.753;;;7.514;99.994
84734;BME280;74957;48.082;17.260;2024-03-02T22:21:00;995.678;;;7.514;99.994
84734;BME280;74957;48.082;17.260;2024-03-02T22:26:01;995.818;;;7.524;99.994
84734;BME280;74957;48.082;17.260;2024-03-02T22:31:08;995.663;;;7.494;99.994
84734;BME280;74957;48.082;17.260;2024-03-02T22:36:00;995.776;;;7.444;99.994
84734;BME280;74957;48.082;17.260;2024-03-02T22:41:05;995.797;;;7.423;99.994
84734;BME280;74957;48.082;17.260;2024-03-02T22:46:16;995.516;;;7.303;99.994
84734;BME280;74957;48.082;17.260;2024-03-02T22:51:04;995.494;;;7.262;99.994
84734;BME280;74957;48.082;17.260;2024-03-02T22:56:02;995.442;;;7.182;99.994
84734;BME280;74957;48.082;17.260;2024-03-02T23:01:14;995.473;;;7.202;99.994
84734;BME280;74957;48.082;17.260;2024-03-02T23:06:00;995.555;;;7.101;99.994
84734;BME280;74957;48.082;17.260;2024-03-02T23:11:06;995.514;;;7.131;99.994
84734;BME280;74957;48.082;17.260;2024-03-02T23:16:05;995.508;;;7.151;99.994
84734;BME280;74957;48.082;17.260;2024-03-02T23:21:00;995.538;;;7.101;99.994
84734;BME280;74957;48.082;17.260;2024-03-02T23:26:02;995.65;;;7.061;99.994
84734;BME280;74957;48.082;17.260;2024-03-02T23:30:59;995.473;;;7.061;99.994
84734;BME280;74957;48.082;17.260;2024-03-02T23:36:07;995.488;;;7.131;99.994
84734;BME280;74957;48.082;17.260;2024-03-02T23:41:00;995.384;;;7.182;99.994
84734;BME280;74957;48.082;17.260;2024-03-02T23:46:37;995.233;;;7.172;99.994
84734;BME280;74957;48.082;17.260;2024-03-02T23:51:04;995.355;;;7.202;99.994
84734;BME280;74957;48.082;17.260;2024-03-02T23:56:10;995.326;;;7.272;99.994
